Time;durP1;ratioP1;P1;durP2;ratioP2;P2;SDS_P1;SDS_P2;PMS_P1;PMS_P2;Temp;Humidity;BMP_temperature;BMP_pressure;BME280_temperature;BME280_humidity;BME280_pressure;Samples;Min_cycle;Max_cycle;Signal;HPM_P1;HPM_P2
2022/01/20 00:00:03;;;;;;;6.57;4.00;;;;;;;17.30;47.63;100783.25;5021769;28;20435;-84
2022/01/20 00:02:31;;;;;;;6.85;3.72;;;;;;;17.27;47.67;100775.41;5004676;28;20026;-84
2022/01/20 00:26:55;;;;;;;5.93;3.60;;;;;;;17.32;47.63;100776.16;5022232;28;20117;-84
2022/01/20 00:29:27;;;;;;;6.43;4.20;;;;;;;17.36;47.65;100775.19;5020968;28;20091;-86
2022/01/20 00:32:06;;;;;;;5.80;3.88;;;;;;;17.38;47.46;100770.72;5005099;28;20026;-85
2022/01/20 00:37:18;;;;;;;5.57;3.67;;;;;;;17.37;47.39;100776.91;5022214;28;20076;-86
2022/01/20 00:39:44;;;;;;;6.60;4.03;;;;;;;17.33;47.36;100769.97;5005698;28;20033;-86
2022/01/20 00:42:10;;;;;;;7.63;4.00;;;;;;;17.38;47.73;100783.91;5006573;28;20065;-84
2022/01/20 00:44:36;;;;;;;6.10;3.80;;;;;;;17.41;47.63;100769.78;5023094;28;20025;-84
2022/01/20 00:47:01;;;;;;;5.65;3.50;;;;;;;17.39;47.52;100763.69;5005953;28;20064;-85
2022/01/20 00:49:27;;;;;;;6.07;3.70;;;;;;;17.40;47.52;100771.56;5023586;28;20081;-85
2022/01/20 00:51:53;;;;;;;6.07;3.90;;;;;;;17.37;47.59;100776.91;5023116;28;20025;-86
2022/01/20 00:54:19;;;;;;;5.18;3.58;;;;;;;17.42;47.27;100779.44;5006581;28;20030;-84
2022/01/20 00:56:45;;;;;;;5.57;3.97;;;;;;;17.41;47.51;100775.94;5023015;28;20017;-85
2022/01/20 00:59:11;;;;;;;6.07;4.20;;;;;;;17.43;47.53;100771.47;5006621;28;20033;-85
2022/01/20 01:01:36;;;;;;;5.97;4.05;;;;;;;17.43;47.46;100771.47;5006951;28;20037;-86
2022/01/20 01:04:02;;;;;;;6.05;3.67;;;;;;;17.45;47.48;100780.22;5007071;28;20109;-84
2022/01/20 01:07:02;;;;;;;6.07;3.72;;;;;;;17.44;47.60;100783.75;5021991;28;20026;-85
2022/01/20 01:09:28;;;;;;;6.13;3.72;;;;;;;17.48;47.68;100770.50;5020472;28;20021;-85
2022/01/20 01:11:58;;;;;;;6.32;3.92;;;;;;;17.43;47.48;100771.47;5003910;28;20030;-84
2022/01/20 01:14:24;;;;;;;6.00;3.75;;;;;;;17.44;47.63;100762.66;5003486;28;20099;-85
2022/01/20 01:24:33;;;;;;;5.15;3.00;;;;;;;17.48;47.51;100765.22;5017965;28;20034;-85
2022/01/20 01:26:59;;;;;;;5.50;3.40;;;;;;;17.44;47.71;100762.66;5000253;28;20030;-83
2022/01/20 01:32:13;;;;;;;5.97;3.43;;;;;;;17.48;47.65;100767.88;4977441;28;20466;-84
2022/01/20 01:34:41;;;;;;;5.65;3.80;;;;;;;17.48;47.59;100771.34;5017639;28;20442;-84
2022/01/20 01:37:24;;;;;;;6.45;3.90;;;;;;;17.52;47.38;100774.78;5017719;28;20030;-84
2022/01/20 01:39:50;;;;;;;6.15;3.80;;;;;;;17.47;47.60;100776.69;5017869;28;20439;-84
2022/01/20 01:42:21;;;;;;;6.35;3.70;;;;;;;17.43;47.57;100782.03;5017723;28;20034;-84
2022/01/20 01:44:48;;;;;;;5.97;3.75;;;;;;;17.49;47.46;100785.44;5017348;28;20084;-83
2022/01/20 01:47:13;;;;;;;6.32;3.38;;;;;;;17.53;47.41;100789.72;5017402;28;20029;-83
2022/01/20 01:49:39;;;;;;;5.53;3.40;;;;;;;17.52;47.29;100780.06;5000228;28;20021;-84
2022/01/20 01:52:05;;;;;;;5.90;3.60;;;;;;;17.53;47.44;100787.09;5017834;28;20483;-85
2022/01/20 01:54:32;;;;;;;5.75;4.10;;;;;;;17.51;47.16;100783.59;5000260;28;20103;-84
2022/01/20 01:57:01;;;;;;;5.60;3.50;;;;;;;17.52;47.16;100787.97;5000139;28;20429;-85
2022/01/20 01:59:26;;;;;;;6.20;3.88;;;;;;;17.50;47.39;100781.88;4999987;28;20068;-84
2022/01/20 02:01:52;;;;;;;7.07;3.63;;;;;;;17.50;47.51;100790.69;5016992;28;20058;-84
2022/01/20 02:04:20;;;;;;;5.43;3.22;;;;;;;17.48;47.54;100794.25;5017156;28;20382;-85
2022/01/20 02:09:41;;;;;;;5.78;3.53;;;;;;;17.52;47.58;100791.50;5017212;28;20079;-84
2022/01/20 02:17:54;;;;;;;6.70;3.85;;;;;;;17.55;47.42;100786.16;5017236;28;20068;-85
2022/01/20 02:20:20;;;;;;;5.22;3.17;;;;;;;17.54;47.32;100787.03;5017726;28;20093;-85
2022/01/20 02:22:45;;;;;;;4.97;2.90;;;;;;;17.56;47.32;100793.16;5018075;28;20363;-84
2022/01/20 02:25:26;;;;;;;5.47;3.30;;;;;;;17.55;47.46;100794.06;5000055;28;20030;-84
2022/01/20 02:27:53;;;;;;;5.15;3.35;;;;;;;17.58;47.29;100790.50;5020469;28;20105;-83
2022/01/20 02:30:21;;;;;;;5.35;3.30;;;;;;;17.58;46.96;100795.75;5001344;28;20026;-83
2022/01/20 02:32:55;;;;;;;5.55;3.85;;;;;;;17.59;47.42;100794.84;5000184;28;20029;-85
2022/01/20 02:35:23;;;;;;;5.50;3.55;;;;;;;17.61;47.26;100789.50;4999581;28;20038;-85
2022/01/20 02:37:54;;;;;;;5.65;3.40;;;;;;;17.59;47.17;100789.56;5001275;28;20022;-85
2022/01/20 02:45:48;;;;;;;5.93;3.90;;;;;;;17.58;47.11;100775.50;5016297;28;20127;-84
2022/01/20 02:48:14;;;;;;;4.72;3.13;;;;;;;17.59;47.16;100779.03;4999223;28;20030;-85
2022/01/20 02:50:39;;;;;;;5.40;3.30;;;;;;;17.58;47.34;100775.50;4999582;28;20037;-83
2022/01/20 02:53:05;;;;;;;5.45;3.22;;;;;;;17.56;47.35;100776.44;4999068;28;20103;-85
2022/01/20 02:55:31;;;;;;;5.10;3.33;;;;;;;17.61;47.42;100769.28;4999455;28;20036;-84
2022/01/20 02:57:56;;;;;;;5.60;3.30;;;;;;;17.60;47.31;100771.94;4999637;28;20022;-84
2022/01/20 03:00:22;;;;;;;4.65;2.85;;;;;;;17.58;47.10;100766.72;4999571;28;20045;-86
2022/01/20 03:02:48;;;;;;;5.40;3.47;;;;;;;17.56;47.37;100768.53;4999874;28;20120;-86
2022/01/20 03:05:14;;;;;;;6.53;3.33;;;;;;;17.58;47.16;100769.38;5000372;28;20034;-84
2022/01/20 03:07:39;;;;;;;4.70;3.03;;;;;;;17.59;47.30;100765.81;4999445;28;20025;-84
2022/01/20 03:10:07;;;;;;;5.32;3.50;;;;;;;17.60;46.91;100759.63;5017421;28;20029;-84
2022/01/20 03:12:33;;;;;;;5.60;3.50;;;;;;;17.62;47.36;100765.72;4999917;28;20037;-84
2022/01/20 03:14:59;;;;;;;5.10;3.28;;;;;;;17.63;47.10;100756.91;4999749;28;20169;-83
2022/01/20 03:17:25;;;;;;;5.20;3.53;;;;;;;17.64;47.05;100752.50;5016000;28;20062;-84
2022/01/20 03:19:50;;;;;;;6.63;4.07;;;;;;;17.66;47.17;100746.28;5016108;28;20064;-83
2022/01/20 03:22:17;;;;;;;5.32;3.20;;;;;;;17.65;47.05;100744.53;5015973;28;20022;-85
2022/01/20 03:24:42;;;;;;;5.10;3.10;;;;;;;17.67;47.03;100745.34;5016526;28;20029;-84
2022/01/20 03:27:09;;;;;;;5.32;3.40;;;;;;;17.68;47.18;100748.88;4999787;28;20363;-85
2022/01/20 03:29:35;;;;;;;5.53;3.50;;;;;;;17.67;47.14;100742.72;4999647;28;20045;-85
2022/01/20 03:32:01;;;;;;;5.05;3.55;;;;;;;17.66;47.05;100741.00;5017620;28;20060;-85
2022/01/20 03:34:27;;;;;;;5.30;3.33;;;;;;;17.71;47.07;100747.00;5017742;28;20018;-85
2022/01/20 03:36:52;;;;;;;5.30;3.30;;;;;;;17.68;46.97;100743.59;4999724;28;20056;-84
2022/01/20 03:39:18;;;;;;;4.95;3.17;;;;;;;17.67;46.89;100749.78;5018206;28;20036;-84
2022/01/20 03:41:44;;;;;;;5.25;3.47;;;;;;;17.65;47.15;100744.53;5016005;28;20033;-84
2022/01/20 03:44:10;;;;;;;5.95;3.40;;;;;;;17.65;47.06;100739.25;5016293;28;20072;-85
2022/01/20 03:46:38;;;;;;;5.35;3.35;;;;;;;17.67;47.08;100737.44;5015014;28;20042;-84
2022/01/20 03:49:25;;;;;;;4.85;3.38;;;;;;;17.67;47.01;100739.22;5015564;28;20049;-85
2022/01/20 03:51:50;;;;;;;;;;;;;;;17.70;47.09;100742.66;5016244;28;20034;-85
2022/01/20 03:54:16;;;;;;;5.67;3.43;;;;;;;17.67;47.11;100733.94;4998556;28;19913;-84
2022/01/20 03:56:42;;;;;;;5.72;3.50;;;;;;;17.69;46.99;100746.16;5015704;28;20371;-84
2022/01/20 03:59:07;;;;;;;5.78;3.22;;;;;;;17.66;46.83;100740.09;5015848;28;20018;-84
2022/01/20 04:01:33;;;;;;;4.47;3.10;;;;;;;17.67;47.16;100747.16;5018137;28;20037;-84
2022/01/20 04:03:58;;;;;;;5.47;3.45;;;;;;;17.65;47.07;100744.53;5017727;28;20033;-86
2022/01/20 04:06:27;;;;;;;5.78;3.25;;;;;;;17.66;47.00;100743.63;4998867;28;20026;-83
2022/01/20 04:08:54;;;;;;;5.07;3.40;;;;;;;17.67;46.86;100748.00;4997707;28;20022;-84
2022/01/20 04:11:22;;;;;;;5.80;3.33;;;;;;;17.67;46.92;100731.31;5002898;28;20113;-85
2022/01/20 04:13:49;;;;;;;5.72;3.83;;;;;;;17.63;46.79;100727.84;5017737;28;20110;-84
2022/01/20 04:16:38;;;;;;;5.63;3.58;;;;;;;17.61;46.90;100727.03;5016201;28;20029;-86
2022/01/20 04:19:07;;;;;;;5.10;3.25;;;;;;;17.62;46.99;100728.78;4997437;28;20371;-84
2022/01/20 04:21:34;;;;;;;7.13;3.75;;;;;;;17.64;46.92;100728.75;5015317;28;20095;-84
2022/01/20 04:24:02;;;;;;;5.68;3.50;;;;;;;17.63;47.09;100725.22;5014850;28;20029;-84
2022/01/20 04:26:28;;;;;;;5.70;3.45;;;;;;;17.63;46.71;100717.31;4997401;28;20116;-84
2022/01/20 04:28:56;;;;;;;6.07;3.50;;;;;;;17.64;46.77;100721.69;4997580;28;20429;-84
2022/01/20 04:31:26;;;;;;;6.70;3.80;;;;;;;17.65;46.79;100717.25;4997846;28;20026;-84
2022/01/20 04:33:52;;;;;;;5.45;2.92;;;;;;;17.66;46.92;100714.59;4997712;28;20026;-85
2022/01/20 04:36:18;;;;;;;5.07;3.15;;;;;;;17.73;46.96;100715.31;5013987;28;20037;-84
2022/01/20 04:38:44;;;;;;;5.15;2.88;;;;;;;17.74;46.84;100714.38;5015103;28;20018;-83
2022/01/20 04:41:10;;;;;;;5.55;3.55;;;;;;;17.73;46.99;100709.16;5015123;28;20100;-85
2022/01/20 04:43:36;;;;;;;5.22;3.45;;;;;;;17.72;46.74;100710.91;5001671;28;20439;-84
2022/01/20 04:46:09;;;;;;;4.75;3.33;;;;;;;17.74;46.99;100710.88;5018770;28;20046;-84
2022/01/20 04:59:32;;;;;;;4.53;2.95;;;;;;;17.75;46.86;100717.88;5019334;28;20080;-84
2022/01/20 05:01:58;;;;;;;4.60;2.95;;;;;;;17.78;46.72;100713.38;5001627;28;20084;-85
2022/01/20 05:04:25;;;;;;;5.60;3.35;;;;;;;17.74;46.86;100711.75;5001538;28;20018;-85
2022/01/20 05:06:53;;;;;;;4.90;2.80;;;;;;;17.71;46.88;100707.41;5001855;28;20045;-85
2022/01/20 05:09:20;;;;;;;5.53;3.60;;;;;;;17.67;46.86;100705.75;5002182;28;20037;-85
2022/01/20 05:11:51;;;;;;;5.63;3.30;;;;;;;17.69;46.70;100714.50;5001861;28;20018;-86
2022/01/20 05:14:17;;;;;;;5.53;3.22;;;;;;;17.70;46.76;100718.88;5002003;28;20033;-84
2022/01/20 05:16:43;;;;;;;5.68;3.60;;;;;;;17.67;46.78;100718.97;5019449;28;20033;-84
2022/01/20 05:19:09;;;;;;;5.22;3.35;;;;;;;17.69;46.85;100729.47;5002398;28;20026;-84
2022/01/20 05:21:34;;;;;;;5.20;3.30;;;;;;;17.71;46.56;100732.94;5019425;28;20115;-86
2022/01/20 05:24:00;;;;;;;5.32;3.33;;;;;;;17.74;46.81;100732.00;5018001;28;20018;-85
2022/01/20 05:26:26;;;;;;;5.53;3.40;;;;;;;17.75;46.63;100728.44;5017871;28;20451;-85
2022/01/20 05:28:52;;;;;;;5.75;3.63;;;;;;;17.78;46.71;100733.66;5000315;28;20492;-84
2022/01/20 05:31:17;;;;;;;5.03;3.00;;;;;;;17.74;46.72;100727.59;5017647;28;20022;-84
2022/01/20 05:33:43;;;;;;;5.65;3.72;;;;;;;17.74;46.58;100734.63;5017631;28;20121;-84
2022/01/20 05:36:08;;;;;;;5.10;2.80;;;;;;;17.78;46.36;100744.22;5000166;28;20057;-85
2022/01/20 05:38:34;;;;;;;5.13;3.10;;;;;;;17.73;46.71;100740.81;5000477;28;20033;-85
2022/01/20 05:41:00;;;;;;;5.55;3.55;;;;;;;17.72;46.68;100739.94;5019221;28;20435;-86
2022/01/20 05:43:25;;;;;;;5.60;3.35;;;;;;;17.71;46.84;100746.13;5001585;28;20018;-85
2022/01/20 05:45:51;;;;;;;4.70;3.30;;;;;;;17.73;46.69;100749.63;5001745;28;20360;-84
2022/01/20 05:48:20;;;;;;;4.70;2.90;;;;;;;17.76;46.58;100746.00;5002251;28;20025;-85
2022/01/20 05:50:46;;;;;;;4.70;2.58;;;;;;;17.73;46.68;100746.97;5001767;28;20029;-85
2022/01/20 05:53:12;;;;;;;5.05;3.20;;;;;;;17.77;47.07;100748.63;5018192;28;20419;-86
2022/01/20 05:55:38;;;;;;;5.25;3.28;;;;;;;17.78;46.71;100752.13;5001399;28;20026;-85
2022/01/20 05:58:06;;;;;;;4.32;2.78;;;;;;;17.77;46.86;100739.84;5019224;28;20363;-84
2022/01/20 06:00:33;;;;;;;4.90;3.05;;;;;;;17.79;46.78;100733.63;5019242;28;20026;-86
2022/01/20 06:05:42;;;;;;;6.10;3.28;;;;;;;17.79;46.67;100730.09;5019066;28;20382;-86
2022/01/20 06:08:09;;;;;;;5.07;3.05;;;;;;;17.82;46.45;100725.59;5020325;28;20018;-84
2022/01/20 06:10:34;;;;;;;5.65;3.15;;;;;;;17.82;46.69;100730.03;5017264;28;20037;-84
2022/01/20 06:13:00;;;;;;;5.00;2.90;;;;;;;17.83;46.75;100731.75;4999583;28;20458;-85
2022/01/20 06:15:26;;;;;;;4.80;2.83;;;;;;;17.86;46.57;100731.66;4999885;28;20029;-84
2022/01/20 06:17:52;;;;;;;5.03;3.20;;;;;;;17.81;46.78;100730.91;4999899;28;20056;-83
2022/01/20 06:20:19;;;;;;;4.75;3.10;;;;;;;17.86;46.85;100736.94;4999992;28;20121;-84
2022/01/20 06:22:45;;;;;;;4.85;3.05;;;;;;;17.86;46.60;100734.28;4999817;28;20348;-84
2022/01/20 06:25:10;;;;;;;5.80;3.20;;;;;;;17.84;46.65;100739.59;5000152;28;20497;-84
2022/01/20 06:27:36;;;;;;;5.40;2.63;;;;;;;17.82;46.84;100735.31;4999650;28;20048;-84
2022/01/20 06:30:07;;;;;;;4.10;2.47;;;;;;;17.81;46.84;100730.91;5016868;28;20064;-84
2022/01/20 06:32:33;;;;;;;4.57;2.50;;;;;;;17.83;46.74;100744.97;4999325;28;20022;-85
2022/01/20 06:35:00;;;;;;;4.75;2.72;;;;;;;17.82;46.82;100736.16;5015523;28;20025;-85
2022/01/20 06:37:25;;;;;;;3.72;2.33;;;;;;;17.80;46.81;100734.47;4999669;28;20022;-86
2022/01/20 06:39:51;;;;;;;4.03;2.40;;;;;;;17.77;47.27;100731.91;4999760;28;20115;-84
2022/01/20 06:42:16;;;;;;;4.28;2.42;;;;;;;17.82;46.95;100720.31;4999001;28;20033;-86
2022/01/20 06:44:43;;;;;;;3.88;2.45;;;;;;;17.82;47.18;100722.09;4999260;28;20534;-84
2022/01/20 06:47:09;;;;;;;3.92;2.35;;;;;;;17.84;46.76;100728.19;5016689;28;20025;-85
2022/01/20 06:49:35;;;;;;;4.68;2.50;;;;;;;17.82;47.09;100730.88;5017669;28;20367;-85
2022/01/20 06:52:01;;;;;;;3.25;2.08;;;;;;;17.85;47.38;100729.94;4998703;28;20034;-84
2022/01/20 06:54:27;;;;;;;3.78;2.28;;;;;;;17.89;47.19;100725.41;5015758;28;20026;-80
2022/01/20 06:56:52;;;;;;;3.35;1.95;;;;;;;17.84;47.38;100733.47;5016094;28;20028;-83
2022/01/20 06:59:18;;;;;;;3.97;2.40;;;;;;;17.89;47.24;100728.94;5016045;28;20054;-85
2022/01/20 07:01:46;;;;;;;3.15;2.05;;;;;;;17.90;47.02;100735.94;4998614;28;20025;-84
2022/01/20 07:04:13;;;;;;;3.63;2.20;;;;;;;17.91;47.19;100739.47;4998340;28;20018;-85
2022/01/20 07:06:40;;;;;;;3.65;1.95;;;;;;;17.89;46.97;100735.97;4998308;28;20121;-86
2022/01/20 07:09:10;;;;;;;3.95;2.13;;;;;;;17.86;47.14;100736.94;5015876;28;20036;-84
2022/01/20 07:11:37;;;;;;;3.80;2.30;;;;;;;17.92;47.10;100742.03;4998200;28;20018;-84
2022/01/20 07:14:04;;;;;;;3.30;2.13;;;;;;;17.90;47.17;100737.72;5015725;28;20026;-83
2022/01/20 07:16:29;;;;;;;3.33;2.10;;;;;;;17.91;47.23;100740.31;5015615;28;20026;-87
2022/01/20 07:18:56;;;;;;;3.33;2.08;;;;;;;17.90;47.34;100741.22;5015968;28;20025;-84
2022/01/20 07:21:22;;;;;;;3.67;2.38;;;;;;;17.92;47.26;100742.03;5015682;28;20418;-83
2022/01/20 07:23:48;;;;;;;3.53;2.10;;;;;;;17.92;47.20;100746.47;5015818;28;20367;-85
2022/01/20 07:26:14;;;;;;;3.92;2.17;;;;;;;17.93;47.37;100754.34;5001144;28;20085;-83
2022/01/20 07:28:40;;;;;;;3.03;2.00;;;;;;;17.92;47.34;100751.75;5000142;28;20060;-84
2022/01/20 07:31:07;;;;;;;3.35;2.03;;;;;;;17.92;47.31;100763.16;4999917;28;20026;-84
2022/01/20 07:33:33;;;;;;;4.68;2.25;;;;;;;17.88;47.51;100766.81;5000405;28;20351;-83
2022/01/20 07:35:59;;;;;;;3.60;2.10;;;;;;;17.91;47.20;100766.72;5000834;28;20056;-84
2022/01/20 07:38:25;;;;;;;3.95;1.92;;;;;;;17.95;47.36;100757.81;5020845;28;20056;-81
2022/01/20 07:40:51;;;;;;;3.45;2.17;;;;;;;17.96;47.36;100756.91;5019471;28;20044;-83
2022/01/20 07:43:18;;;;;;;3.33;1.92;;;;;;;17.93;47.21;100759.63;5018576;28;20101;-84
2022/01/20 07:45:47;;;;;;;3.30;2.00;;;;;;;17.93;47.46;100770.19;4997318;28;20113;-82
2022/01/20 07:48:12;;;;;;;3.10;2.00;;;;;;;17.93;47.28;100764.91;4998632;28;20030;-85
2022/01/20 07:50:38;;;;;;;4.47;2.17;;;;;;;17.92;47.40;100763.16;4996726;28;20030;-84
2022/01/20 07:53:04;;;;;;;3.50;1.95;;;;;;;17.93;47.29;100775.47;4996040;28;20100;-85
2022/01/20 07:55:30;;;;;;;3.65;2.08;;;;;;;17.94;47.32;100769.28;4996655;28;20538;-84
2022/01/20 07:57:56;;;;;;;4.75;2.20;;;;;;;17.96;47.35;100775.38;4996680;28;20113;-83
2022/01/20 08:00:22;;;;;;;3.63;2.20;;;;;;;18.00;47.60;100775.31;4997354;28;20046;-84
2022/01/20 08:02:48;;;;;;;4.07;2.22;;;;;;;18.02;47.32;100768.22;4998265;28;20150;-86
2022/01/20 08:05:15;;;;;;;4.18;2.13;;;;;;;18.04;47.15;100771.66;4997152;28;20018;-85
2022/01/20 08:07:41;;;;;;;3.85;2.20;;;;;;;18.00;47.38;100764.75;4996252;28;20022;-84
2022/01/20 08:10:07;;;;;;;4.28;1.98;;;;;;;18.00;47.30;100765.59;4995963;28;20030;-85
2022/01/20 08:12:33;;;;;;;2.90;2.00;;;;;;;18.02;47.28;100769.06;4996803;28;20356;-87
2022/01/20 08:15:00;;;;;;;4.05;2.08;;;;;;;18.02;47.36;100770.84;4996714;28;20444;-84
2022/01/20 08:17:26;;;;;;;3.33;1.83;;;;;;;18.02;47.34;100763.78;4999263;28;20053;-85
2022/01/20 08:19:52;;;;;;;2.78;1.65;;;;;;;18.02;47.48;100762.94;5000366;28;20026;-85
2022/01/20 08:22:18;;;;;;;5.10;2.33;;;;;;;18.02;47.50;100758.50;5003261;28;20030;-90
2022/01/20 08:28:08;;;;;;;4.07;2.05;;;;;;;18.04;47.62;100750.53;5000806;28;20108;-84
2022/01/20 08:30:34;;;;;;;2.90;1.83;;;;;;;18.02;47.42;100747.94;5001804;28;20025;-85
2022/01/20 08:33:03;;;;;;;3.58;2.08;;;;;;;18.03;47.34;100743.53;5000770;28;20031;-84
2022/01/20 08:35:32;;;;;;;4.03;2.15;;;;;;;18.02;47.47;100741.81;5000272;28;20541;-87
2022/01/20 08:38:34;;;;;;;3.45;1.98;;;;;;;18.01;47.41;100740.06;5002415;28;20022;-87
2022/01/20 08:41:00;;;;;;;3.72;1.85;;;;;;;17.96;47.58;100738.41;4999986;28;20337;-85
2022/01/20 08:43:25;;;;;;;3.20;2.03;;;;;;;17.95;47.42;100730.53;4999132;28;20037;-85
2022/01/20 08:45:51;;;;;;;3.92;2.22;;;;;;;17.97;47.62;100734.84;4998949;28;20050;-85
2022/01/20 08:48:17;;;;;;;3.67;2.00;;;;;;;17.98;47.40;100739.22;5000367;28;20105;-84
2022/01/20 08:50:43;;;;;;;3.53;1.77;;;;;;;17.96;47.26;100733.13;4998769;28;20106;-85
2022/01/20 08:53:11;;;;;;;4.85;2.00;;;;;;;18.01;47.37;100734.78;4999503;28;20105;-86
2022/01/20 08:55:37;;;;;;;3.83;1.90;;;;;;;18.00;47.32;100743.63;4998569;28;20093;-85
2022/01/20 08:58:03;;;;;;;4.55;2.03;;;;;;;18.01;47.06;100742.72;4998403;28;20116;-87
2022/01/20 09:00:31;;;;;;;3.30;2.10;;;;;;;18.05;47.44;100749.63;5000317;28;20022;-84
2022/01/20 09:02:58;;;;;;;3.08;1.75;;;;;;;17.98;47.46;100741.88;4998284;28;20029;-84
2022/01/20 09:05:24;;;;;;;3.28;1.67;;;;;;;18.02;47.31;100747.09;4998724;28;20030;-85
2022/01/20 09:07:50;;;;;;;3.47;1.90;;;;;;;18.00;47.49;100751.56;4997504;28;20027;-85
2022/01/20 09:10:20;;;;;;;3.08;1.95;;;;;;;18.03;47.26;100744.41;4998548;28;20026;-86
2022/01/20 09:15:33;;;;;;;3.28;1.90;;;;;;;18.02;47.16;100752.38;5001876;28;20030;-85
2022/01/20 09:18:05;;;;;;;4.53;1.92;;;;;;;18.05;47.31;100762.81;4998541;28;20037;-85
2022/01/20 09:20:32;;;;;;;2.97;1.50;;;;;;;18.02;47.32;100760.28;4997273;28;20241;-84
2022/01/20 09:22:58;;;;;;;4.07;2.05;;;;;;;18.04;47.42;100759.34;4998311;28;20088;-84
2022/01/20 09:25:25;;;;;;;3.22;1.85;;;;;;;17.98;47.13;100755.06;4997072;28;20165;-86
2022/01/20 09:27:51;;;;;;;3.47;2.08;;;;;;;18.01;47.39;100761.19;4996555;28;20458;-84
2022/01/20 09:30:19;;;;;;;3.40;1.92;;;;;;;18.00;47.33;100760.31;4997339;28;20348;-86
2022/01/20 09:32:57;;;;;;;3.88;2.10;;;;;;;18.04;47.26;100763.75;4996908;28;20406;-84
2022/01/20 09:35:27;;;;;;;3.35;1.75;;;;;;;18.05;47.11;100757.53;4997218;28;20030;-85
2022/01/20 09:37:52;;;;;;;3.50;1.83;;;;;;;18.03;47.19;100760.25;4997159;28;20026;-84
2022/01/20 09:40:18;;;;;;;5.15;2.05;;;;;;;18.01;47.17;100753.28;4999788;28;20038;-85
2022/01/20 09:42:43;;;;;;;4.43;2.30;;;;;;;18.02;47.30;100747.94;4996760;28;20092;-85
2022/01/20 09:45:09;;;;;;;3.13;1.83;;;;;;;18.05;47.22;100747.84;4996470;28;20049;-85
2022/01/20 09:47:36;;;;;;;4.70;2.15;;;;;;;18.04;47.23;100740.84;4996767;28;20117;-85
2022/01/20 09:50:03;;;;;;;2.63;1.80;;;;;;;18.06;47.16;100743.50;4997164;28;20541;-85
2022/01/20 09:52:29;;;;;;;3.38;1.88;;;;;;;18.06;47.06;100748.78;4996676;28;20022;-84
2022/01/20 09:54:54;;;;;;;3.17;1.73;;;;;;;18.05;47.34;100746.97;4997771;28;20022;-87
2022/01/20 09:57:20;;;;;;;3.28;2.00;;;;;;;18.04;47.33;100750.53;4996749;28;20026;-85
2022/01/20 09:59:46;;;;;;;3.65;1.95;;;;;;;18.06;47.24;100744.34;4997650;28;20026;-85
2022/01/20 10:02:18;;;;;;;3.38;1.90;;;;;;;18.07;47.36;100750.50;4996480;28;20521;-84
2022/01/20 10:04:44;;;;;;;3.83;1.88;;;;;;;18.07;47.56;100746.06;4996827;28;20092;-84
2022/01/20 10:07:13;;;;;;;3.55;1.95;;;;;;;18.12;47.46;100748.59;4997376;28;20026;-86
2022/01/20 10:09:41;;;;;;;3.75;2.30;;;;;;;18.09;47.43;100743.38;4994723;28;20030;-84
2022/01/20 10:12:09;;;;;;;3.85;1.92;;;;;;;18.06;47.02;100749.63;4997144;28;20038;-84
2022/01/20 10:14:44;;;;;;;3.97;2.30;;;;;;;18.04;47.10;100751.41;4996819;28;20045;-86
2022/01/20 10:17:15;;;;;;;3.70;2.50;;;;;;;18.09;47.28;100751.31;5010125;28;20038;-85
2022/01/20 10:19:41;;;;;;;3.83;2.30;;;;;;;18.07;47.19;100751.34;4997067;28;20478;-84
2022/01/20 10:22:14;;;;;;;5.10;2.67;;;;;;;18.04;47.31;100755.81;4997224;28;20030;-85
2022/01/20 10:24:40;;;;;;;4.63;2.63;;;;;;;18.04;47.28;100766.38;4993621;28;20097;-85
2022/01/20 10:27:11;;;;;;;6.00;3.38;;;;;;;18.00;46.92;100762.13;4984875;28;20018;-85
2022/01/20 10:29:37;;;;;;;6.35;3.28;;;;;;;17.98;47.04;100770.06;4989574;28;20379;-88
2022/01/20 10:32:03;;;;;;;5.60;2.95;;;;;;;17.94;46.95;100761.38;4981521;28;20029;-86
2022/01/20 10:34:35;;;;;;;6.47;3.17;;;;;;;17.92;46.89;100763.16;4988528;28;20030;-86
2022/01/20 10:37:05;;;;;;;4.93;2.80;;;;;;;17.92;47.00;100751.75;4996476;28;20030;-85
2022/01/20 10:39:37;;;;;;;6.13;2.90;;;;;;;17.93;47.23;100751.69;4995843;28;20026;-85
2022/01/20 10:42:26;;;;;;;4.57;2.78;;;;;;;17.96;47.02;100742.81;4981515;28;20128;-86
2022/01/20 10:44:55;;;;;;;4.40;2.67;;;;;;;17.95;47.16;100741.97;4992034;28;20050;-86
2022/01/20 10:47:48;;;;;;;5.03;2.53;;;;;;;17.96;47.07;100738.41;4996088;28;20030;-84
2022/01/20 10:50:24;;;;;;;4.80;2.60;;;;;;;17.96;47.01;100733.13;4995663;28;20023;-86
2022/01/20 10:56:11;;;;;;;5.45;2.58;;;;;;;17.95;46.97;100731.41;4994223;28;20040;-85
2022/01/20 10:58:37;;;;;;;5.53;2.65;;;;;;;17.94;47.08;100724.41;4993907;28;20026;-86
2022/01/20 11:01:04;;;;;;;4.93;3.00;;;;;;;17.96;47.06;100725.22;4997309;28;20026;-86
2022/01/20 11:03:48;;;;;;;4.72;2.85;;;;;;;17.95;47.10;100731.41;4995941;28;20372;-87
2022/01/20 11:06:36;;;;;;;4.65;2.70;;;;;;;17.93;47.21;100727.94;4996436;28;20026;-85
2022/01/20 11:09:06;;;;;;;4.70;2.50;;;;;;;17.91;47.12;100724.47;4995224;28;20026;-85
2022/01/20 11:11:33;;;;;;;6.30;2.83;;;;;;;17.91;47.05;100719.19;4995972;28;20419;-84
2022/01/20 11:13:59;;;;;;;4.80;2.92;;;;;;;17.90;47.16;100722.75;4996026;28;20026;-86
2022/01/20 11:36:35;;;;;;;5.45;3.53;;;;;;;17.94;46.95;100712.97;4995659;28;20311;-84
2022/01/20 11:39:05;;;;;;;5.78;3.33;;;;;;;17.95;47.02;100715.56;4994946;28;20443;-83
2022/01/20 11:41:43;;;;;;;6.07;3.78;;;;;;;17.91;47.05;100713.91;4994772;28;20018;-84
2022/01/20 11:44:13;;;;;;;5.00;2.85;;;;;;;17.92;47.12;100709.50;4996013;28;20014;-84
2022/01/20 11:46:43;;;;;;;4.88;2.97;;;;;;;17.94;47.34;100707.69;5013400;28;20058;-84
2022/01/20 11:49:11;;;;;;;4.88;3.13;;;;;;;17.96;46.80;100717.28;4998345;28;20045;-86
2022/01/20 11:51:51;;;;;;;5.20;3.50;;;;;;;17.92;46.97;100710.34;4998125;28;20044;-84
2022/01/20 11:54:30;;;;;;;5.43;3.17;;;;;;;17.92;47.02;100713.00;5015616;28;20026;-84
2022/01/20 11:57:15;;;;;;;5.03;3.13;;;;;;;17.91;46.97;100708.63;5015336;28;20411;-87
2022/01/20 11:59:52;;;;;;;6.28;3.10;;;;;;;17.93;47.19;100706.78;4997804;28;20025;-85
2022/01/20 12:02:32;;;;;;;;;;;;;;;18.00;47.07;100711.94;5015824;28;20474;-86
2022/01/20 12:04:59;;;;;;;4.53;3.05;;;;;;;17.98;46.93;100694.34;4998062;28;19921;-86
2022/01/20 12:07:31;;;;;;;5.63;3.25;;;;;;;17.95;47.09;100697.06;5015003;28;20030;-84
2022/01/20 12:10:21;;;;;;;5.65;3.42;;;;;;;17.93;47.26;100690.94;4997660;28;20022;-84
2022/01/20 12:12:47;;;;;;;5.10;3.30;;;;;;;18.00;46.75;100690.81;4997742;28;20033;-86
2022/01/20 12:15:22;;;;;;;5.05;3.03;;;;;;;18.00;46.77;100690.81;5015228;28;20056;-84
2022/01/20 12:17:55;;;;;;;5.90;3.65;;;;;;;17.95;46.73;100673.31;4997680;28;20026;-86
2022/01/20 12:20:23;;;;;;;6.20;3.15;;;;;;;17.96;47.03;100680.31;4997669;28;20037;-84
2022/01/20 12:22:50;;;;;;;5.10;3.20;;;;;;;17.92;47.01;100678.66;5014678;28;20052;-86
2022/01/20 12:25:27;;;;;;;5.13;3.15;;;;;;;17.95;47.21;100678.59;5013423;28;20025;-84
2022/01/20 12:28:07;;;;;;;5.55;3.22;;;;;;;17.96;47.04;100682.06;5015761;28;20030;-86
2022/01/20 12:30:36;;;;;;;5.53;3.40;;;;;;;17.97;46.87;100665.34;4997663;28;20069;-84
2022/01/20 12:33:14;;;;;;;5.35;3.10;;;;;;;17.97;46.98;100666.19;5014660;28;20026;-86
2022/01/20 12:35:52;;;;;;;4.80;3.13;;;;;;;17.93;47.11;100668.97;4997251;28;20459;-85
2022/01/20 12:38:28;;;;;;;6.82;3.35;;;;;;;17.88;47.19;100663.84;5014830;28;20041;-84
2022/01/20 12:41:12;;;;;;;6.90;3.78;;;;;;;17.95;47.12;100654.81;5014664;28;20447;-81
2022/01/20 12:43:58;;;;;;;6.38;4.32;;;;;;;17.87;47.08;100669.16;4996975;28;20347;-84
2022/01/20 12:46:26;;;;;;;7.45;3.90;;;;;;;17.88;47.00;100673.53;4994438;28;20054;-87
2022/01/20 12:48:59;;;;;;;6.00;3.80;;;;;;;17.84;47.04;100664.81;4994400;28;20035;-86
2022/01/20 12:51:34;;;;;;;5.72;3.60;;;;;;;17.85;47.07;100658.63;4994986;28;20053;-87
2022/01/20 12:54:06;;;;;;;5.65;3.38;;;;;;;17.87;46.98;100654.16;4994129;28;20049;-85
2022/01/20 12:56:38;;;;;;;6.13;4.10;;;;;;;17.88;47.15;100648.00;4994072;28;20026;-85
2022/01/20 12:59:05;;;;;;;6.07;3.55;;;;;;;17.92;47.12;100646.97;4993823;28;20022;-88
2022/01/20 13:01:51;;;;;;;5.03;3.05;;;;;;;17.94;47.36;100645.19;4993970;28;20103;-88
2022/01/20 13:07:21;;;;;;;5.93;3.20;;;;;;;17.94;47.05;100636.38;4996359;28;20038;-84